sensor_id;sensor_type;location;lat;lon;timestamp;P1;durP1;ratioP1;P2;durP2;ratioP2
75450;SDS011;64029;48.244;9.188;2023-02-07T00:01:29;11.80;;;8.07;;
75450;SDS011;64029;48.244;9.188;2023-02-07T00:03:56;13.40;;;8.53;;
75450;SDS011;64029;48.244;9.188;2023-02-07T00:06:24;13.70;;;9.00;;
75450;SDS011;64029;48.244;9.188;2023-02-07T00:08:52;15.50;;;9.07;;
75450;SDS011;64029;48.244;9.188;2023-02-07T00:11:20;15.30;;;8.70;;
75450;SDS011;64029;48.244;9.188;2023-02-07T00:13:50;14.70;;;8.87;;
75450;SDS011;64029;48.244;9.188;2023-02-07T00:16:19;13.03;;;9.83;;
75450;SDS011;64029;48.244;9.188;2023-02-07T00:18:46;16.10;;;9.10;;
75450;SDS011;64029;48.244;9.188;2023-02-07T00:21:14;14.20;;;8.87;;
75450;SDS011;64029;48.244;9.188;2023-02-07T00:23:43;15.93;;;9.87;;
75450;SDS011;64029;48.244;9.188;2023-02-07T00:26:11;13.67;;;8.80;;
75450;SDS011;64029;48.244;9.188;2023-02-07T00:28:39;19.33;;;9.43;;
75450;SDS011;64029;48.244;9.188;2023-02-07T00:31:08;17.37;;;10.20;;
75450;SDS011;64029;48.244;9.188;2023-02-07T00:33:37;13.13;;;9.30;;
75450;SDS011;64029;48.244;9.188;2023-02-07T00:36:06;14.20;;;9.83;;
75450;SDS011;64029;48.244;9.188;2023-02-07T00:38:34;14.00;;;9.50;;
75450;SDS011;64029;48.244;9.188;2023-02-07T00:41:01;13.10;;;8.53;;
75450;SDS011;64029;48.244;9.188;2023-02-07T00:43:29;15.40;;;9.87;;
75450;SDS011;64029;48.244;9.188;2023-02-07T00:45:56;14.77;;;10.30;;
75450;SDS011;64029;48.244;9.188;2023-02-07T00:48:25;16.70;;;10.00;;
75450;SDS011;64029;48.244;9.188;2023-02-07T00:50:52;18.70;;;10.67;;
75450;SDS011;64029;48.244;9.188;2023-02-07T00:53:19;15.73;;;10.63;;
75450;SDS011;64029;48.244;9.188;2023-02-07T00:55:47;20.50;;;11.20;;
75450;SDS011;64029;48.244;9.188;2023-02-07T00:58:14;23.37;;;13.13;;
75450;SDS011;64029;48.244;9.188;2023-02-07T01:00:40;29.37;;;15.90;;
75450;SDS011;64029;48.244;9.188;2023-02-07T01:03:07;30.77;;;18.63;;
75450;SDS011;64029;48.244;9.188;2023-02-07T01:05:36;40.07;;;22.83;;
75450;SDS011;64029;48.244;9.188;2023-02-07T01:08:03;55.70;;;24.97;;
75450;SDS011;64029;48.244;9.188;2023-02-07T01:10:30;49.77;;;27.50;;
75450;SDS011;64029;48.244;9.188;2023-02-07T01:12:57;68.17;;;32.67;;
75450;SDS011;64029;48.244;9.188;2023-02-07T01:15:24;75.30;;;36.73;;
75450;SDS011;64029;48.244;9.188;2023-02-07T01:17:51;85.17;;;41.90;;
75450;SDS011;64029;48.244;9.188;2023-02-07T01:20:18;97.87;;;43.10;;
75450;SDS011;64029;48.244;9.188;2023-02-07T01:22:47;108.63;;;41.83;;
75450;SDS011;64029;48.244;9.188;2023-02-07T01:25:14;84.27;;;40.23;;
75450;SDS011;64029;48.244;9.188;2023-02-07T01:27:40;93.73;;;41.93;;
75450;SDS011;64029;48.244;9.188;2023-02-07T01:30:08;79.47;;;41.30;;
75450;SDS011;64029;48.244;9.188;2023-02-07T01:32:35;89.33;;;37.67;;
75450;SDS011;64029;48.244;9.188;2023-02-07T01:35:02;76.23;;;35.53;;
75450;SDS011;64029;48.244;9.188;2023-02-07T01:37:29;57.50;;;32.57;;
75450;SDS011;64029;48.244;9.188;2023-02-07T01:39:57;58.40;;;28.93;;
75450;SDS011;64029;48.244;9.188;2023-02-07T01:42:25;56.30;;;28.13;;
75450;SDS011;64029;48.244;9.188;2023-02-07T01:44:58;50.17;;;26.20;;
75450;SDS011;64029;48.244;9.188;2023-02-07T01:47:27;53.57;;;26.47;;
75450;SDS011;64029;48.244;9.188;2023-02-07T01:49:55;49.33;;;24.53;;
75450;SDS011;64029;48.244;9.188;2023-02-07T01:52:24;44.87;;;24.97;;
75450;SDS011;64029;48.244;9.188;2023-02-07T01:54:54;46.17;;;24.80;;
75450;SDS011;64029;48.244;9.188;2023-02-07T01:57:25;45.50;;;23.63;;
75450;SDS011;64029;48.244;9.188;2023-02-07T01:59:54;38.03;;;22.50;;
75450;SDS011;64029;48.244;9.188;2023-02-07T02:02:22;41.13;;;22.40;;
75450;SDS011;64029;48.244;9.188;2023-02-07T02:04:54;33.30;;;17.77;;
75450;SDS011;64029;48.244;9.188;2023-02-07T02:07:22;29.33;;;18.70;;
75450;SDS011;64029;48.244;9.188;2023-02-07T02:09:50;32.10;;;18.57;;
75450;SDS011;64029;48.244;9.188;2023-02-07T02:12:27;33.47;;;18.57;;
75450;SDS011;64029;48.244;9.188;2023-02-07T02:15:08;30.40;;;18.40;;
75450;SDS011;64029;48.244;9.188;2023-02-07T02:17:53;29.17;;;17.20;;
75450;SDS011;64029;48.244;9.188;2023-02-07T02:20:36;28.00;;;16.73;;
75450;SDS011;64029;48.244;9.188;2023-02-07T02:23:25;23.40;;;14.40;;
75450;SDS011;64029;48.244;9.188;2023-02-07T02:29:12;22.93;;;13.40;;
75450;SDS011;64029;48.244;9.188;2023-02-07T02:35:15;20.10;;;13.63;;
75450;SDS011;64029;48.244;9.188;2023-02-07T02:37:46;26.83;;;13.57;;
75450;SDS011;64029;48.244;9.188;2023-02-07T02:40:20;21.83;;;13.80;;
75450;SDS011;64029;48.244;9.188;2023-02-07T02:42:53;29.97;;;13.93;;
75450;SDS011;64029;48.244;9.188;2023-02-07T02:45:27;26.77;;;15.40;;
75450;SDS011;64029;48.244;9.188;2023-02-07T02:47:58;23.57;;;15.60;;
75450;SDS011;64029;48.244;9.188;2023-02-07T02:50:27;23.93;;;15.80;;
75450;SDS011;64029;48.244;9.188;2023-02-07T02:52:55;31.10;;;16.20;;
75450;SDS011;64029;48.244;9.188;2023-02-07T02:55:32;27.80;;;15.27;;
75450;SDS011;64029;48.244;9.188;2023-02-07T02:58:16;30.77;;;16.13;;
75450;SDS011;64029;48.244;9.188;2023-02-07T03:00:54;29.00;;;16.57;;
75450;SDS011;64029;48.244;9.188;2023-02-07T03:03:39;28.07;;;15.80;;
75450;SDS011;64029;48.244;9.188;2023-02-07T03:06:20;26.40;;;15.83;;
75450;SDS011;64029;48.244;9.188;2023-02-07T03:08:56;24.97;;;14.87;;
75450;SDS011;64029;48.244;9.188;2023-02-07T03:11:30;25.03;;;15.40;;
75450;SDS011;64029;48.244;9.188;2023-02-07T03:14:05;29.13;;;16.30;;
75450;SDS011;64029;48.244;9.188;2023-02-07T03:16:42;25.07;;;16.10;;
75450;SDS011;64029;48.244;9.188;2023-02-07T03:19:17;24.83;;;15.03;;
75450;SDS011;64029;48.244;9.188;2023-02-07T03:21:49;26.30;;;16.70;;
75450;SDS011;64029;48.244;9.188;2023-02-07T03:24:20;24.23;;;14.70;;
75450;SDS011;64029;48.244;9.188;2023-02-07T03:26:51;28.10;;;15.23;;
75450;SDS011;64029;48.244;9.188;2023-02-07T03:29:20;26.80;;;15.53;;
75450;SDS011;64029;48.244;9.188;2023-02-07T03:31:49;23.27;;;14.80;;
75450;SDS011;64029;48.244;9.188;2023-02-07T03:34:24;22.27;;;13.83;;
75450;SDS011;64029;48.244;9.188;2023-02-07T03:36:59;29.20;;;16.00;;
75450;SDS011;64029;48.244;9.188;2023-02-07T03:39:32;27.23;;;14.50;;
75450;SDS011;64029;48.244;9.188;2023-02-07T03:42:00;22.10;;;12.60;;
75450;SDS011;64029;48.244;9.188;2023-02-07T03:44:29;21.67;;;13.00;;
75450;SDS011;64029;48.244;9.188;2023-02-07T03:46:58;24.17;;;15.17;;
75450;SDS011;64029;48.244;9.188;2023-02-07T03:49:26;23.53;;;15.50;;
75450;SDS011;64029;48.244;9.188;2023-02-07T03:51:53;22.37;;;13.70;;
75450;SDS011;64029;48.244;9.188;2023-02-07T03:54:20;21.07;;;14.00;;
75450;SDS011;64029;48.244;9.188;2023-02-07T03:56:47;23.30;;;13.50;;
75450;SDS011;64029;48.244;9.188;2023-02-07T03:59:13;23.73;;;14.10;;
75450;SDS011;64029;48.244;9.188;2023-02-07T04:01:40;19.13;;;13.50;;
75450;SDS011;64029;48.244;9.188;2023-02-07T04:04:07;27.30;;;14.70;;
75450;SDS011;64029;48.244;9.188;2023-02-07T04:06:36;20.67;;;14.60;;
75450;SDS011;64029;48.244;9.188;2023-02-07T04:09:03;23.17;;;14.20;;
75450;SDS011;64029;48.244;9.188;2023-02-07T04:11:30;19.60;;;12.37;;
75450;SDS011;64029;48.244;9.188;2023-02-07T04:13:56;20.10;;;12.80;;
75450;SDS011;64029;48.244;9.188;2023-02-07T04:16:23;32.20;;;15.20;;
75450;SDS011;64029;48.244;9.188;2023-02-07T04:18:50;22.50;;;13.53;;
75450;SDS011;64029;48.244;9.188;2023-02-07T04:21:17;20.87;;;12.63;;
75450;SDS011;64029;48.244;9.188;2023-02-07T04:23:45;22.73;;;13.73;;
75450;SDS011;64029;48.244;9.188;2023-02-07T04:26:12;19.57;;;13.77;;
75450;SDS011;64029;48.244;9.188;2023-02-07T04:28:39;25.20;;;15.43;;
75450;SDS011;64029;48.244;9.188;2023-02-07T04:31:06;28.50;;;16.37;;
75450;SDS011;64029;48.244;9.188;2023-02-07T04:33:33;27.07;;;16.33;;
75450;SDS011;64029;48.244;9.188;2023-02-07T04:36:01;25.07;;;14.17;;
75450;SDS011;64029;48.244;9.188;2023-02-07T04:38:30;27.07;;;15.60;;
75450;SDS011;64029;48.244;9.188;2023-02-07T04:40:58;22.97;;;14.87;;
75450;SDS011;64029;48.244;9.188;2023-02-07T04:43:27;24.43;;;13.47;;
75450;SDS011;64029;48.244;9.188;2023-02-07T04:45:54;24.23;;;13.50;;
75450;SDS011;64029;48.244;9.188;2023-02-07T04:48:21;31.73;;;13.67;;
75450;SDS011;64029;48.244;9.188;2023-02-07T04:50:48;23.67;;;13.73;;
75450;SDS011;64029;48.244;9.188;2023-02-07T04:53:15;23.93;;;13.37;;
75450;SDS011;64029;48.244;9.188;2023-02-07T04:55:41;22.20;;;13.20;;
75450;SDS011;64029;48.244;9.188;2023-02-07T04:58:10;27.47;;;14.30;;
75450;SDS011;64029;48.244;9.188;2023-02-07T05:00:37;22.70;;;13.30;;
75450;SDS011;64029;48.244;9.188;2023-02-07T05:03:03;27.63;;;15.87;;
75450;SDS011;64029;48.244;9.188;2023-02-07T05:05:30;32.27;;;16.73;;
75450;SDS011;64029;48.244;9.188;2023-02-07T05:07:57;28.33;;;15.53;;
75450;SDS011;64029;48.244;9.188;2023-02-07T05:10:24;24.83;;;15.30;;
75450;SDS011;64029;48.244;9.188;2023-02-07T05:12:51;26.70;;;14.57;;
75450;SDS011;64029;48.244;9.188;2023-02-07T05:15:19;23.40;;;13.40;;
75450;SDS011;64029;48.244;9.188;2023-02-07T05:17:46;28.63;;;14.87;;
75450;SDS011;64029;48.244;9.188;2023-02-07T05:20:12;21.20;;;13.97;;
75450;SDS011;64029;48.244;9.188;2023-02-07T05:22:39;21.37;;;13.63;;
75450;SDS011;64029;48.244;9.188;2023-02-07T05:25:06;23.87;;;13.50;;
75450;SDS011;64029;48.244;9.188;2023-02-07T05:27:33;21.90;;;14.47;;
75450;SDS011;64029;48.244;9.188;2023-02-07T05:30:00;21.17;;;14.80;;
75450;SDS011;64029;48.244;9.188;2023-02-07T05:32:28;24.80;;;13.07;;
75450;SDS011;64029;48.244;9.188;2023-02-07T05:35:13;19.63;;;13.47;;
75450;SDS011;64029;48.244;9.188;2023-02-07T05:37:40;25.07;;;15.93;;
75450;SDS011;64029;48.244;9.188;2023-02-07T05:40:08;22.77;;;14.53;;
75450;SDS011;64029;48.244;9.188;2023-02-07T05:42:37;22.97;;;13.50;;
75450;SDS011;64029;48.244;9.188;2023-02-07T05:45:04;24.00;;;14.50;;
75450;SDS011;64029;48.244;9.188;2023-02-07T05:47:33;28.87;;;15.27;;
75450;SDS011;64029;48.244;9.188;2023-02-07T05:50:00;25.27;;;14.93;;
75450;SDS011;64029;48.244;9.188;2023-02-07T05:52:27;25.80;;;16.00;;
75450;SDS011;64029;48.244;9.188;2023-02-07T05:54:54;30.63;;;17.93;;
75450;SDS011;64029;48.244;9.188;2023-02-07T05:57:21;32.57;;;19.10;;
75450;SDS011;64029;48.244;9.188;2023-02-07T05:59:48;32.80;;;18.93;;
75450;SDS011;64029;48.244;9.188;2023-02-07T06:02:15;32.73;;;19.17;;
75450;SDS011;64029;48.244;9.188;2023-02-07T06:04:43;30.03;;;18.50;;
75450;SDS011;64029;48.244;9.188;2023-02-07T06:07:10;28.10;;;17.67;;
75450;SDS011;64029;48.244;9.188;2023-02-07T06:09:37;27.63;;;17.80;;
75450;SDS011;64029;48.244;9.188;2023-02-07T06:12:04;30.57;;;18.00;;
75450;SDS011;64029;48.244;9.188;2023-02-07T06:14:31;29.13;;;17.43;;
75450;SDS011;64029;48.244;9.188;2023-02-07T06:16:58;28.83;;;18.50;;
75450;SDS011;64029;48.244;9.188;2023-02-07T06:19:25;29.20;;;18.67;;
75450;SDS011;64029;48.244;9.188;2023-02-07T06:21:53;25.83;;;17.27;;
75450;SDS011;64029;48.244;9.188;2023-02-07T06:24:20;26.33;;;16.93;;
75450;SDS011;64029;48.244;9.188;2023-02-07T06:26:47;31.90;;;20.80;;
75450;SDS011;64029;48.244;9.188;2023-02-07T06:29:14;38.20;;;19.27;;
75450;SDS011;64029;48.244;9.188;2023-02-07T06:31:41;35.63;;;17.60;;
75450;SDS011;64029;48.244;9.188;2023-02-07T06:34:07;36.43;;;18.97;;
75450;SDS011;64029;48.244;9.188;2023-02-07T06:36:34;31.80;;;17.80;;
75450;SDS011;64029;48.244;9.188;2023-02-07T06:39:03;27.40;;;17.23;;
75450;SDS011;64029;48.244;9.188;2023-02-07T06:41:30;30.87;;;17.60;;
75450;SDS011;64029;48.244;9.188;2023-02-07T06:43:57;32.00;;;18.17;;
75450;SDS011;64029;48.244;9.188;2023-02-07T06:46:23;26.87;;;17.70;;
75450;SDS011;64029;48.244;9.188;2023-02-07T06:48:50;35.30;;;17.53;;
75450;SDS011;64029;48.244;9.188;2023-02-07T06:51:17;27.37;;;16.80;;
75450;SDS011;64029;48.244;9.188;2023-02-07T06:53:44;28.90;;;16.97;;
75450;SDS011;64029;48.244;9.188;2023-02-07T06:56:12;31.00;;;16.97;;
75450;SDS011;64029;48.244;9.188;2023-02-07T06:58:39;34.93;;;19.50;;
75450;SDS011;64029;48.244;9.188;2023-02-07T07:01:06;34.50;;;20.07;;
75450;SDS011;64029;48.244;9.188;2023-02-07T07:03:33;25.63;;;16.83;;
75450;SDS011;64029;48.244;9.188;2023-02-07T07:06:00;30.07;;;17.40;;
75450;SDS011;64029;48.244;9.188;2023-02-07T07:08:26;26.67;;;16.77;;
75450;SDS011;64029;48.244;9.188;2023-02-07T07:10:54;29.53;;;18.37;;
75450;SDS011;64029;48.244;9.188;2023-02-07T07:13:23;24.43;;;15.40;;
75450;SDS011;64029;48.244;9.188;2023-02-07T07:15:50;24.77;;;16.60;;
75450;SDS011;64029;48.244;9.188;2023-02-07T07:18:19;29.37;;;16.90;;
75450;SDS011;64029;48.244;9.188;2023-02-07T07:20:46;31.63;;;18.97;;
75450;SDS011;64029;48.244;9.188;2023-02-07T07:23:17;36.80;;;19.83;;
75450;SDS011;64029;48.244;9.188;2023-02-07T07:25:44;30.40;;;17.77;;
75450;SDS011;64029;48.244;9.188;2023-02-07T07:28:11;35.20;;;19.33;;
75450;SDS011;64029;48.244;9.188;2023-02-07T07:30:39;31.53;;;19.33;;
75450;SDS011;64029;48.244;9.188;2023-02-07T07:33:06;27.97;;;19.87;;
75450;SDS011;64029;48.244;9.188;2023-02-07T07:35:33;33.47;;;18.10;;
75450;SDS011;64029;48.244;9.188;2023-02-07T07:38:00;31.43;;;18.97;;
75450;SDS011;64029;48.244;9.188;2023-02-07T07:40:29;33.93;;;19.60;;
75450;SDS011;64029;48.244;9.188;2023-02-07T07:42:56;33.00;;;18.63;;
75450;SDS011;64029;48.244;9.188;2023-02-07T07:45:23;30.00;;;16.63;;
75450;SDS011;64029;48.244;9.188;2023-02-07T07:47:52;29.37;;;17.13;;
75450;SDS011;64029;48.244;9.188;2023-02-07T07:50:18;31.53;;;18.50;;
75450;SDS011;64029;48.244;9.188;2023-02-07T07:52:45;34.67;;;20.80;;
75450;SDS011;64029;48.244;9.188;2023-02-07T07:55:12;37.73;;;20.23;;
75450;SDS011;64029;48.244;9.188;2023-02-07T07:57:40;33.60;;;19.40;;
75450;SDS011;64029;48.244;9.188;2023-02-07T08:00:07;36.90;;;20.63;;
75450;SDS011;64029;48.244;9.188;2023-02-07T08:02:35;35.90;;;21.13;;
75450;SDS011;64029;48.244;9.188;2023-02-07T08:05:04;36.10;;;21.03;;
75450;SDS011;64029;48.244;9.188;2023-02-07T08:07:33;33.10;;;19.47;;
75450;SDS011;64029;48.244;9.188;2023-02-07T08:10:00;36.73;;;21.10;;
75450;SDS011;64029;48.244;9.188;2023-02-07T08:12:26;38.77;;;22.53;;
75450;SDS011;64029;48.244;9.188;2023-02-07T08:14:53;39.73;;;22.90;;
75450;SDS011;64029;48.244;9.188;2023-02-07T08:17:20;31.50;;;18.93;;
75450;SDS011;64029;48.244;9.188;2023-02-07T08:19:47;34.00;;;19.53;;
75450;SDS011;64029;48.244;9.188;2023-02-07T08:22:15;33.07;;;18.47;;
75450;SDS011;64029;48.244;9.188;2023-02-07T08:24:42;30.40;;;17.20;;
75450;SDS011;64029;48.244;9.188;2023-02-07T08:27:09;28.70;;;17.80;;
75450;SDS011;64029;48.244;9.188;2023-02-07T08:29:36;27.23;;;16.53;;
75450;SDS011;64029;48.244;9.188;2023-02-07T08:32:03;28.67;;;17.37;;
75450;SDS011;64029;48.244;9.188;2023-02-07T08:34:30;27.83;;;18.33;;
75450;SDS011;64029;48.244;9.188;2023-02-07T08:37:01;30.23;;;17.13;;
75450;SDS011;64029;48.244;9.188;2023-02-07T08:39:30;22.27;;;15.17;;
75450;SDS011;64029;48.244;9.188;2023-02-07T08:41:57;26.80;;;15.80;;
75450;SDS011;64029;48.244;9.188;2023-02-07T08:44:24;25.50;;;16.43;;
75450;SDS011;64029;48.244;9.188;2023-02-07T08:46:51;26.73;;;15.07;;
75450;SDS011;64029;48.244;9.188;2023-02-07T08:49:18;25.33;;;15.07;;
75450;SDS011;64029;48.244;9.188;2023-02-07T08:51:45;26.10;;;15.90;;
75450;SDS011;64029;48.244;9.188;2023-02-07T08:54:12;25.10;;;15.60;;
75450;SDS011;64029;48.244;9.188;2023-02-07T08:56:40;26.43;;;15.70;;
75450;SDS011;64029;48.244;9.188;2023-02-07T08:59:07;30.07;;;18.70;;
75450;SDS011;64029;48.244;9.188;2023-02-07T09:01:34;24.27;;;15.23;;
75450;SDS011;64029;48.244;9.188;2023-02-07T09:04:01;22.73;;;14.63;;
75450;SDS011;64029;48.244;9.188;2023-02-07T09:06:28;28.17;;;16.30;;
75450;SDS011;64029;48.244;9.188;2023-02-07T09:08:55;24.10;;;16.17;;
75450;SDS011;64029;48.244;9.188;2023-02-07T09:11:23;25.50;;;16.07;;
75450;SDS011;64029;48.244;9.188;2023-02-07T09:13:51;23.30;;;14.40;;
75450;SDS011;64029;48.244;9.188;2023-02-07T09:16:18;23.57;;;15.40;;
75450;SDS011;64029;48.244;9.188;2023-02-07T09:18:45;23.90;;;15.50;;
75450;SDS011;64029;48.244;9.188;2023-02-07T09:21:12;23.17;;;15.87;;
75450;SDS011;64029;48.244;9.188;2023-02-07T09:23:39;29.23;;;16.80;;
75450;SDS011;64029;48.244;9.188;2023-02-07T09:26:06;25.87;;;16.63;;
75450;SDS011;64029;48.244;9.188;2023-02-07T09:28:34;31.00;;;16.97;;
75450;SDS011;64029;48.244;9.188;2023-02-07T09:31:07;28.77;;;16.50;;
75450;SDS011;64029;48.244;9.188;2023-02-07T09:33:34;27.17;;;16.37;;
75450;SDS011;64029;48.244;9.188;2023-02-07T09:36:02;27.60;;;17.30;;
75450;SDS011;64029;48.244;9.188;2023-02-07T09:38:29;22.53;;;15.80;;
75450;SDS011;64029;48.244;9.188;2023-02-07T09:40:56;25.07;;;16.93;;
75450;SDS011;64029;48.244;9.188;2023-02-07T09:43:29;27.23;;;16.40;;
75450;SDS011;64029;48.244;9.188;2023-02-07T09:46:02;27.90;;;15.63;;
75450;SDS011;64029;48.244;9.188;2023-02-07T09:48:40;26.83;;;16.27;;
75450;SDS011;64029;48.244;9.188;2023-02-07T09:51:11;25.93;;;14.90;;
75450;SDS011;64029;48.244;9.188;2023-02-07T09:53:42;25.73;;;15.20;;
75450;SDS011;64029;48.244;9.188;2023-02-07T09:56:13;27.80;;;16.50;;
75450;SDS011;64029;48.244;9.188;2023-02-07T09:58:44;24.97;;;16.27;;
75450;SDS011;64029;48.244;9.188;2023-02-07T10:01:17;27.17;;;16.83;;
75450;SDS011;64029;48.244;9.188;2023-02-07T10:03:50;22.67;;;15.00;;
75450;SDS011;64029;48.244;9.188;2023-02-07T10:06:30;23.80;;;16.33;;
75450;SDS011;64029;48.244;9.188;2023-02-07T10:09:04;30.90;;;17.73;;
75450;SDS011;64029;48.244;9.188;2023-02-07T10:11:40;25.17;;;15.70;;
75450;SDS011;64029;48.244;9.188;2023-02-07T10:14:20;34.73;;;17.57;;
75450;SDS011;64029;48.244;9.188;2023-02-07T10:17:01;28.00;;;16.87;;
75450;SDS011;64029;48.244;9.188;2023-02-07T10:19:40;24.20;;;15.17;;
75450;SDS011;64029;48.244;9.188;2023-02-07T10:22:18;23.87;;;15.20;;
75450;SDS011;64029;48.244;9.188;2023-02-07T10:24:59;28.90;;;17.73;;
75450;SDS011;64029;48.244;9.188;2023-02-07T10:27:39;30.40;;;16.57;;
75450;SDS011;64029;48.244;9.188;2023-02-07T10:30:12;26.90;;;16.30;;
75450;SDS011;64029;48.244;9.188;2023-02-07T10:32:41;26.40;;;17.77;;
75450;SDS011;64029;48.244;9.188;2023-02-07T10:35:15;26.17;;;15.67;;
75450;SDS011;64029;48.244;9.188;2023-02-07T10:37:45;30.87;;;18.03;;
75450;SDS011;64029;48.244;9.188;2023-02-07T10:40:15;20.17;;;15.40;;
75450;SDS011;64029;48.244;9.188;2023-02-07T10:42:49;30.47;;;16.40;;
75450;SDS011;64029;48.244;9.188;2023-02-07T10:45:20;24.57;;;14.57;;
75450;SDS011;64029;48.244;9.188;2023-02-07T10:47:47;23.27;;;15.93;;
75450;SDS011;64029;48.244;9.188;2023-02-07T10:50:16;22.60;;;14.73;;
75450;SDS011;64029;48.244;9.188;2023-02-07T10:52:47;23.47;;;14.67;;
75450;SDS011;64029;48.244;9.188;2023-02-07T10:55:17;28.13;;;16.43;;
75450;SDS011;64029;48.244;9.188;2023-02-07T10:57:51;22.00;;;14.40;;
75450;SDS011;64029;48.244;9.188;2023-02-07T11:00:21;22.07;;;14.37;;
75450;SDS011;64029;48.244;9.188;2023-02-07T11:02:51;21.83;;;14.57;;
75450;SDS011;64029;48.244;9.188;2023-02-07T11:05:27;28.50;;;15.80;;
75450;SDS011;64029;48.244;9.188;2023-02-07T11:07:57;23.83;;;15.03;;
75450;SDS011;64029;48.244;9.188;2023-02-07T11:10:26;22.30;;;14.60;;
75450;SDS011;64029;48.244;9.188;2023-02-07T11:12:57;23.10;;;15.30;;
75450;SDS011;64029;48.244;9.188;2023-02-07T11:15:28;25.93;;;14.07;;
75450;SDS011;64029;48.244;9.188;2023-02-07T11:17:59;20.47;;;13.87;;
75450;SDS011;64029;48.244;9.188;2023-02-07T11:20:30;19.90;;;13.30;;
75450;SDS011;64029;48.244;9.188;2023-02-07T11:23:02;23.97;;;14.53;;
75450;SDS011;64029;48.244;9.188;2023-02-07T11:25:33;21.90;;;13.53;;
75450;SDS011;64029;48.244;9.188;2023-02-07T11:28:02;24.60;;;13.87;;
75450;SDS011;64029;48.244;9.188;2023-02-07T11:30:29;23.73;;;14.90;;
75450;SDS011;64029;48.244;9.188;2023-02-07T11:33:01;21.77;;;14.73;;
75450;SDS011;64029;48.244;9.188;2023-02-07T11:35:31;23.80;;;14.67;;
75450;SDS011;64029;48.244;9.188;2023-02-07T11:37:59;20.63;;;12.97;;
75450;SDS011;64029;48.244;9.188;2023-02-07T11:40:28;25.27;;;14.50;;
75450;SDS011;64029;48.244;9.188;2023-02-07T11:42:57;23.83;;;13.63;;
75450;SDS011;64029;48.244;9.188;2023-02-07T11:45:27;21.03;;;13.97;;
75450;SDS011;64029;48.244;9.188;2023-02-07T11:47:58;20.30;;;12.90;;
75450;SDS011;64029;48.244;9.188;2023-02-07T11:50:27;25.53;;;15.00;;
75450;SDS011;64029;48.244;9.188;2023-02-07T11:52:58;24.37;;;14.50;;
75450;SDS011;64029;48.244;9.188;2023-02-07T11:55:28;21.30;;;13.27;;
75450;SDS011;64029;48.244;9.188;2023-02-07T11:58:06;20.57;;;12.80;;
75450;SDS011;64029;48.244;9.188;2023-02-07T12:00:36;23.17;;;12.83;;
75450;SDS011;64029;48.244;9.188;2023-02-07T12:03:04;19.87;;;13.30;;
75450;SDS011;64029;48.244;9.188;2023-02-07T12:05:35;20.70;;;12.83;;
75450;SDS011;64029;48.244;9.188;2023-02-07T12:08:09;16.40;;;11.63;;
75450;SDS011;64029;48.244;9.188;2023-02-07T12:10:38;19.60;;;12.27;;
75450;SDS011;64029;48.244;9.188;2023-02-07T12:13:10;18.60;;;12.23;;
75450;SDS011;64029;48.244;9.188;2023-02-07T12:15:40;18.13;;;11.70;;
75450;SDS011;64029;48.244;9.188;2023-02-07T12:18:14;24.60;;;13.20;;
75450;SDS011;64029;48.244;9.188;2023-02-07T12:20:53;14.70;;;10.90;;
75450;SDS011;64029;48.244;9.188;2023-02-07T12:23:30;17.97;;;12.30;;
75450;SDS011;64029;48.244;9.188;2023-02-07T12:26:05;15.77;;;11.00;;
75450;SDS011;64029;48.244;9.188;2023-02-07T12:28:39;15.70;;;11.40;;
75450;SDS011;64029;48.244;9.188;2023-02-07T12:31:14;17.87;;;10.20;;
75450;SDS011;64029;48.244;9.188;2023-02-07T12:33:48;20.03;;;10.93;;
75450;SDS011;64029;48.244;9.188;2023-02-07T12:36:23;15.87;;;11.30;;
75450;SDS011;64029;48.244;9.188;2023-02-07T12:38:57;17.80;;;10.80;;
75450;SDS011;64029;48.244;9.188;2023-02-07T12:41:30;17.10;;;10.90;;
75450;SDS011;64029;48.244;9.188;2023-02-07T12:44:04;15.43;;;11.70;;
75450;SDS011;64029;48.244;9.188;2023-02-07T12:46:43;16.90;;;10.57;;
75450;SDS011;64029;48.244;9.188;2023-02-07T12:49:24;14.10;;;11.70;;
75450;SDS011;64029;48.244;9.188;2023-02-07T12:52:15;16.10;;;10.03;;
75450;SDS011;64029;48.244;9.188;2023-02-07T12:54:55;14.80;;;9.73;;
75450;SDS011;64029;48.244;9.188;2023-02-07T12:57:32;22.23;;;10.57;;
75450;SDS011;64029;48.244;9.188;2023-02-07T13:00:05;14.20;;;9.77;;
75450;SDS011;64029;48.244;9.188;2023-02-07T13:02:43;17.20;;;11.00;;
75450;SDS011;64029;48.244;9.188;2023-02-07T13:05:33;21.70;;;10.77;;
75450;SDS011;64029;48.244;9.188;2023-02-07T13:08:15;14.20;;;10.77;;
75450;SDS011;64029;48.244;9.188;2023-02-07T13:10:53;12.60;;;8.50;;
75450;SDS011;64029;48.244;9.188;2023-02-07T13:13:29;18.77;;;11.00;;
75450;SDS011;64029;48.244;9.188;2023-02-07T13:16:01;15.03;;;9.90;;
75450;SDS011;64029;48.244;9.188;2023-02-07T13:18:35;15.00;;;9.50;;
75450;SDS011;64029;48.244;9.188;2023-02-07T13:21:12;12.80;;;9.50;;
75450;SDS011;64029;48.244;9.188;2023-02-07T13:23:47;11.97;;;9.17;;
75450;SDS011;64029;48.244;9.188;2023-02-07T13:26:16;12.60;;;9.30;;
75450;SDS011;64029;48.244;9.188;2023-02-07T13:28:45;13.00;;;9.40;;
75450;SDS011;64029;48.244;9.188;2023-02-07T13:31:19;14.50;;;9.03;;
75450;SDS011;64029;48.244;9.188;2023-02-07T13:33:49;12.27;;;9.50;;
75450;SDS011;64029;48.244;9.188;2023-02-07T13:36:19;16.60;;;10.50;;
75450;SDS011;64029;48.244;9.188;2023-02-07T13:38:55;14.03;;;10.00;;
75450;SDS011;64029;48.244;9.188;2023-02-07T13:41:35;14.83;;;9.27;;
75450;SDS011;64029;48.244;9.188;2023-02-07T13:44:11;13.50;;;9.80;;
75450;SDS011;64029;48.244;9.188;2023-02-07T13:49:52;12.40;;;9.50;;
75450;SDS011;64029;48.244;9.188;2023-02-07T13:52:26;10.50;;;8.30;;
75450;SDS011;64029;48.244;9.188;2023-02-07T13:55:00;15.30;;;9.67;;
75450;SDS011;64029;48.244;9.188;2023-02-07T13:57:39;13.80;;;9.70;;
75450;SDS011;64029;48.244;9.188;2023-02-07T14:00:26;13.03;;;8.63;;
75450;SDS011;64029;48.244;9.188;2023-02-07T14:02:55;15.87;;;9.40;;
75450;SDS011;64029;48.244;9.188;2023-02-07T14:05:25;19.10;;;10.73;;
75450;SDS011;64029;48.244;9.188;2023-02-07T14:07:56;12.43;;;8.13;;
75450;SDS011;64029;48.244;9.188;2023-02-07T14:10:33;15.03;;;9.57;;
75450;SDS011;64029;48.244;9.188;2023-02-07T14:13:14;16.57;;;9.57;;
75450;SDS011;64029;48.244;9.188;2023-02-07T14:15:53;15.33;;;9.43;;
75450;SDS011;64029;48.244;9.188;2023-02-07T14:24:19;14.23;;;9.93;;
75450;SDS011;64029;48.244;9.188;2023-02-07T14:27:02;11.40;;;8.57;;
75450;SDS011;64029;48.244;9.188;2023-02-07T14:32:38;16.20;;;10.70;;
75450;SDS011;64029;48.244;9.188;2023-02-07T14:38:18;13.87;;;10.23;;
75450;SDS011;64029;48.244;9.188;2023-02-07T14:40:48;15.40;;;11.30;;
75450;SDS011;64029;48.244;9.188;2023-02-07T14:43:23;15.90;;;10.43;;
75450;SDS011;64029;48.244;9.188;2023-02-07T14:46:01;18.97;;;10.30;;
75450;SDS011;64029;48.244;9.188;2023-02-07T14:48:36;16.60;;;11.40;;
75450;SDS011;64029;48.244;9.188;2023-02-07T14:51:12;18.90;;;9.90;;
75450;SDS011;64029;48.244;9.188;2023-02-07T14:53:42;13.40;;;10.07;;
75450;SDS011;64029;48.244;9.188;2023-02-07T14:56:14;13.43;;;10.00;;
75450;SDS011;64029;48.244;9.188;2023-02-07T14:58:54;17.90;;;11.10;;
75450;SDS011;64029;48.244;9.188;2023-02-07T15:01:23;16.57;;;11.30;;
75450;SDS011;64029;48.244;9.188;2023-02-07T15:04:00;17.63;;;11.07;;